Time;durP1;ratioP1;P1;durP2;ratioP2;P2;SDS_P1;SDS_P2;PMS_P1;PMS_P2;Temp;Humidity;BMP_temperature;BMP_pressure;BME280_temperature;BME280_humidity;BME280_pressure;Samples;Min_cycle;Max_cycle;Signal;HPM_P1;HPM_P2
2023/09/18 00:00:56;;;;;;;1.85;1.00;;;;;;;;;;5049063;28;20081;-73
2023/09/18 00:03:26;;;;;;;6.78;1.23;;;;;;;;;;5049811;28;20045;-73
2023/09/18 00:05:53;;;;;;;2.38;1.10;;;;;;;;;;5049765;28;20045;-70
2023/09/18 00:08:20;;;;;;;2.05;0.98;;;;;;;;;;5049692;28;20049;-75
2023/09/18 00:10:53;;;;;;;2.72;1.08;;;;;;;;;;5050149;28;20135;-74
2023/09/18 00:13:20;;;;;;;3.17;1.00;;;;;;;;;;5050173;28;20052;-74
2023/09/18 00:15:48;;;;;;;5.38;1.20;;;;;;;;;;5049618;28;20041;-74
2023/09/18 00:18:16;;;;;;;3.55;1.13;;;;;;;;;;5049662;28;20053;-71
2023/09/18 00:20:43;;;;;;;2.60;1.05;;;;;;;;;;5049975;28;20049;-74
2023/09/18 00:23:10;;;;;;;1.90;0.82;;;;;;;;;;5049644;28;20128;-73
2023/09/18 00:25:36;;;;;;;4.22;1.08;;;;;;;;;;5049870;28;20045;-74
2023/09/18 00:28:04;;;;;;;3.83;1.00;;;;;;;;;;5049525;28;20669;-73
2023/09/18 00:30:31;;;;;;;3.05;1.00;;;;;;;;;;5049561;28;20073;-75
2023/09/18 00:32:57;;;;;;;1.67;0.90;;;;;;;;;;5049317;28;20060;-74
2023/09/18 00:35:24;;;;;;;4.68;1.00;;;;;;;;;;5049454;28;20049;-74
2023/09/18 00:37:51;;;;;;;3.22;0.82;;;;;;;;;;5049290;28;20041;-74
2023/09/18 00:40:18;;;;;;;2.55;0.80;;;;;;;;;;5049676;28;20045;-74
2023/09/18 00:42:45;;;;;;;2.33;1.00;;;;;;;;;;5049450;28;20053;-72
2023/09/18 00:45:12;;;;;;;3.22;0.95;;;;;;;;;;5049225;28;20136;-72
2023/09/18 00:47:39;;;;;;;2.83;0.90;;;;;;;;;;5049102;28;20045;-75
2023/09/18 00:50:12;;;;;;;2.78;1.10;;;;;;;;;;5049176;28;20049;-74
2023/09/18 00:52:39;;;;;;;1.50;0.90;;;;;;;;;;5049068;28;20570;-71
2023/09/18 00:55:06;;;;;;;2.92;0.95;;;;;;;;;;5031509;28;20522;-74
2023/09/18 00:57:34;;;;;;;3.15;0.98;;;;;;;;;;5049281;28;20048;-73
2023/09/18 01:00:04;;;;;;;2.03;1.00;;;;;;;;;;5049395;28;20515;-71
2023/09/18 01:02:31;;;;;;;2.75;0.90;;;;;;;;;;5048904;28;20059;-74
2023/09/18 01:04:58;;;;;;;2.40;0.90;;;;;;;;;;5049125;28;20671;-74
2023/09/18 01:07:25;;;;;;;1.58;0.73;;;;;;;;;;5049091;28;20125;-69
2023/09/18 01:09:55;;;;;;;4.78;1.35;;;;;;;;;;5048993;28;20049;-73
2023/09/18 01:12:28;;;;;;;1.65;1.08;;;;;;;;;;5051367;28;20068;-74
2023/09/18 01:15:07;;;;;;;4.72;1.25;;;;;;;;;;5053440;28;20131;-73
2023/09/18 01:17:38;;;;;;;3.53;1.15;;;;;;;;;;5051886;28;20095;-72
2023/09/18 01:20:08;;;;;;;2.80;1.08;;;;;;;;;;5053651;28;20045;-70
2023/09/18 01:22:35;;;;;;;4.45;0.90;;;;;;;;;;5052813;28;20143;-70
2023/09/18 01:25:02;;;;;;;2.03;0.90;;;;;;;;;;5053043;28;20041;-70
2023/09/18 01:27:29;;;;;;;1.52;0.90;;;;;;;;;;5052520;28;20051;-73
2023/09/18 01:29:55;;;;;;;2.17;0.90;;;;;;;;;;5052781;28;20052;-73
2023/09/18 01:32:26;;;;;;;7.75;1.20;;;;;;;;;;5052793;28;20526;-74
2023/09/18 01:34:55;;;;;;;2.25;0.95;;;;;;;;;;5052722;28;20094;-70
2023/09/18 01:37:32;;;;;;;3.33;1.10;;;;;;;;;;5052718;28;20529;-74
2023/09/18 01:39:59;;;;;;;6.63;1.05;;;;;;;;;;5052843;28;20044;-73
2023/09/18 01:42:27;;;;;;;3.70;1.13;;;;;;;;;;5052210;28;20049;-73
2023/09/18 01:44:55;;;;;;;1.60;0.95;;;;;;;;;;5052594;28;20057;-74
2023/09/18 01:47:28;;;;;;;3.65;1.10;;;;;;;;;;5052194;28;20131;-73
2023/09/18 01:49:55;;;;;;;3.63;1.02;;;;;;;;;;5052406;28;20049;-73
2023/09/18 01:52:22;;;;;;;2.83;1.00;;;;;;;;;;5052235;28;20041;-71
2023/09/18 01:54:49;;;;;;;2.42;1.00;;;;;;;;;;5052324;28;20549;-72
2023/09/18 01:57:15;;;;;;;3.65;1.08;;;;;;;;;;5052202;28;20431;-74
2023/09/18 01:59:43;;;;;;;2.65;0.93;;;;;;;;;;5052514;28;20048;-74
2023/09/18 02:02:11;;;;;;;2.45;1.20;;;;;;;;;;5052584;28;20060;-72
2023/09/18 02:04:48;;;;;;;1.17;0.80;;;;;;;;;;5052028;28;20132;-72
2023/09/18 02:07:35;;;;;;;3.33;1.20;;;;;;;;;;5052480;28;20053;-71
2023/09/18 02:10:03;;;;;;;2.90;1.08;;;;;;;;;;5052140;28;20516;-71
2023/09/18 02:12:29;;;;;;;3.25;1.00;;;;;;;;;;5051965;28;20053;-74
2023/09/18 02:14:58;;;;;;;2.28;0.90;;;;;;;;;;5052437;28;20128;-70
2023/09/18 02:17:25;;;;;;;1.70;0.98;;;;;;;;;;5052277;28;20041;-72
2023/09/18 02:19:52;;;;;;;1.58;0.85;;;;;;;;;;5051950;28;20110;-71
2023/09/18 02:22:19;;;;;;;2.78;0.95;;;;;;;;;;5051962;28;20119;-73
2023/09/18 02:24:45;;;;;;;1.48;0.88;;;;;;;;;;5050965;28;20489;-72
2023/09/18 02:27:12;;;;;;;2.72;0.98;;;;;;;;;;5051733;28;20051;-74
2023/09/18 02:29:40;;;;;;;3.17;0.95;;;;;;;;;;5051605;28;20558;-72
2023/09/18 02:32:07;;;;;;;2.35;0.90;;;;;;;;;;5051706;28;20049;-69
2023/09/18 02:34:34;;;;;;;3.88;1.10;;;;;;;;;;5051923;28;20045;-69
2023/09/18 02:37:01;;;;;;;1.95;0.93;;;;;;;;;;5051717;28;20073;-72
2023/09/18 02:39:27;;;;;;;2.15;0.82;;;;;;;;;;5051292;28;20045;-72
2023/09/18 02:41:54;;;;;;;2.35;0.80;;;;;;;;;;5051531;28;20049;-74
2023/09/18 02:44:21;;;;;;;3.83;1.10;;;;;;;;;;5033457;28;20051;-72
2023/09/18 02:46:47;;;;;;;4.40;0.90;;;;;;;;;;5051781;28;20130;-73
2023/09/18 02:49:14;;;;;;;2.40;1.10;;;;;;;;;;5051317;28;20048;-69
2023/09/18 02:51:41;;;;;;;2.28;0.75;;;;;;;;;;5051425;28;20103;-70
2023/09/18 02:54:08;;;;;;;2.15;0.90;;;;;;;;;;5051157;28;20330;-74
2023/09/18 02:56:34;;;;;;;1.65;0.80;;;;;;;;;;5050896;28;20041;-70
2023/09/18 02:59:01;;;;;;;1.73;0.90;;;;;;;;;;5050823;28;20056;-74
2023/09/18 03:01:28;;;;;;;1.63;0.82;;;;;;;;;;5050974;28;20429;-75
2023/09/18 03:03:55;;;;;;;3.38;0.95;;;;;;;;;;5051074;28;20060;-73
2023/09/18 03:06:22;;;;;;;1.77;0.93;;;;;;;;;;5051077;28;20134;-74
2023/09/18 03:08:48;;;;;;;2.33;0.80;;;;;;;;;;5050696;28;20390;-74
2023/09/18 03:11:16;;;;;;;2.38;0.88;;;;;;;;;;5051039;28;20132;-74
2023/09/18 03:13:47;;;;;;;1.65;0.85;;;;;;;;;;5050669;28;20052;-73
2023/09/18 03:16:14;;;;;;;1.67;0.80;;;;;;;;;;5050538;28;20052;-71
2023/09/18 03:18:41;;;;;;;3.15;1.05;;;;;;;;;;5050506;28;20441;-69
2023/09/18 03:21:08;;;;;;;2.65;1.13;;;;;;;;;;5051276;28;20122;-69
2023/09/18 03:23:34;;;;;;;2.05;0.90;;;;;;;;;;5050300;28;20053;-74
2023/09/18 03:26:02;;;;;;;2.00;1.10;;;;;;;;;;5050651;28;20053;-69
2023/09/18 03:28:29;;;;;;;3.60;1.00;;;;;;;;;;5050708;28;20052;-74
2023/09/18 03:30:57;;;;;;;3.33;1.35;;;;;;;;;;5050792;28;20044;-74
2023/09/18 03:33:24;;;;;;;5.60;1.50;;;;;;;;;;5050253;28;20084;-74
2023/09/18 03:35:54;;;;;;;14.38;9.98;;;;;;;;;;5049541;28;20106;-69
2023/09/18 03:38:21;;;;;;;6.95;3.97;;;;;;;;;;5050357;28;20053;-72
2023/09/18 03:40:48;;;;;;;8.57;5.43;;;;;;;;;;5050431;28;20822;-69
2023/09/18 03:43:15;;;;;;;10.15;5.53;;;;;;;;;;5050465;28;20055;-70
2023/09/18 03:45:45;;;;;;;7.00;4.68;;;;;;;;;;5050348;28;20049;-72
2023/09/18 03:48:11;;;;;;;12.10;4.97;;;;;;;;;;5050248;28;20088;-72
2023/09/18 03:50:38;;;;;;;5.82;3.70;;;;;;;;;;5049925;28;20523;-71
2023/09/18 03:53:07;;;;;;;7.63;4.93;;;;;;;;;;5050001;28;20044;-73
2023/09/18 03:55:34;;;;;;;9.30;6.28;;;;;;;;;;5050135;28;20037;-74
2023/09/18 03:58:00;;;;;;;9.30;6.15;;;;;;;;;;5050270;28;20049;-72
2023/09/18 04:00:27;;;;;;;9.15;5.43;;;;;;;;;;5050192;28;20049;-73
2023/09/18 04:02:54;;;;;;;5.95;3.35;;;;;;;;;;5050265;28;20049;-70
2023/09/18 04:05:21;;;;;;;4.45;3.00;;;;;;;;;;5050104;28;20075;-73
2023/09/18 04:07:48;;;;;;;6.30;3.08;;;;;;;;;;5049837;28;20520;-69
2023/09/18 04:10:19;;;;;;;6.05;2.67;;;;;;;;;;5049812;28;20047;-72
2023/09/18 04:12:46;;;;;;;4.95;3.08;;;;;;;;;;5049824;28;20080;-69
2023/09/18 04:15:15;;;;;;;9.55;3.58;;;;;;;;;;5049612;28;20128;-74
2023/09/18 04:17:42;;;;;;;5.18;3.30;;;;;;;;;;5049855;28;20045;-71
2023/09/18 04:20:09;;;;;;;4.65;2.72;;;;;;;;;;5049746;28;20051;-73
2023/09/18 04:22:36;;;;;;;7.40;2.78;;;;;;;;;;5049544;28;20520;-69
2023/09/18 04:25:05;;;;;;;4.07;2.08;;;;;;;;;;5049435;28;20048;-70
2023/09/18 04:27:32;;;;;;;3.47;1.85;;;;;;;;;;5049560;28;20130;-74
2023/09/18 04:30:00;;;;;;;3.63;2.05;;;;;;;;;;5049302;28;20041;-71
2023/09/18 04:32:27;;;;;;;6.47;1.83;;;;;;;;;;5049704;28;20049;-71
2023/09/18 04:34:54;;;;;;;4.43;1.80;;;;;;;;;;5049602;28;20051;-73
2023/09/18 04:37:21;;;;;;;6.78;2.00;;;;;;;;;;5048584;28;20075;-70
2023/09/18 04:39:48;;;;;;;4.72;1.85;;;;;;;;;;5049610;28;20046;-74
2023/09/18 04:42:14;;;;;;;4.70;1.75;;;;;;;;;;5049645;28;20136;-72
2023/09/18 04:44:41;;;;;;;4.78;1.80;;;;;;;;;;5049589;28;20045;-69
2023/09/18 04:47:08;;;;;;;3.53;1.58;;;;;;;;;;5048949;28;20124;-74
2023/09/18 04:49:35;;;;;;;5.53;1.63;;;;;;;;;;5049035;28;20057;-73
2023/09/18 04:52:02;;;;;;;3.45;1.52;;;;;;;;;;5049645;28;20485;-72
2023/09/18 04:54:29;;;;;;;4.03;1.75;;;;;;;;;;5049318;28;20051;-75
2023/09/18 04:56:55;;;;;;;4.13;1.73;;;;;;;;;;5049083;28;20053;-72
2023/09/18 04:59:22;;;;;;;4.45;2.00;;;;;;;;;;5049143;28;20056;-74
2023/09/18 05:01:49;;;;;;;4.63;1.80;;;;;;;;;;5049427;28;20049;-71
2023/09/18 05:04:16;;;;;;;5.22;1.80;;;;;;;;;;5048856;28;20061;-73
2023/09/18 05:06:42;;;;;;;2.20;1.38;;;;;;;;;;5049026;28;20045;-70
2023/09/18 05:09:09;;;;;;;2.92;1.35;;;;;;;;;;5031608;28;20053;-72
2023/09/18 05:11:36;;;;;;;5.40;1.98;;;;;;;;;;5049202;28;20052;-72
2023/09/18 05:14:03;;;;;;;6.32;1.63;;;;;;;;;;5049591;28;20049;-70
2023/09/18 05:16:30;;;;;;;3.28;1.50;;;;;;;;;;5048717;28;20626;-72
2023/09/18 05:18:59;;;;;;;2.88;1.60;;;;;;;;;;5049062;28;20049;-71
2023/09/18 05:21:27;;;;;;;5.68;1.90;;;;;;;;;;5049059;28;20276;-71
2023/09/18 05:23:53;;;;;;;5.50;2.17;;;;;;;;;;5048844;28;20045;-72
2023/09/18 05:26:23;;;;;;;8.05;2.00;;;;;;;;;;5048731;28;20464;-69
2023/09/18 05:28:50;;;;;;;4.77;1.70;;;;;;;;;;5048904;28;20041;-73
2023/09/18 05:31:18;;;;;;;3.63;1.70;;;;;;;;;;5031411;28;20045;-71
2023/09/18 05:33:44;;;;;;;3.97;1.70;;;;;;;;;;5048899;28;20055;-71
2023/09/18 05:36:14;;;;;;;5.88;1.77;;;;;;;;;;5048961;28;20425;-73
2023/09/18 05:38:43;;;;;;;4.80;1.60;;;;;;;;;;5049140;28;20045;-74
2023/09/18 05:41:10;;;;;;;7.22;1.80;;;;;;;;;;5031071;28;20045;-74
2023/09/18 05:43:36;;;;;;;5.03;1.65;;;;;;;;;;5048902;28;20083;-70
2023/09/18 05:46:03;;;;;;;3.33;1.52;;;;;;;;;;5048841;28;20200;-73
2023/09/18 05:48:31;;;;;;;5.10;1.70;;;;;;;;;;5048703;28;20140;-73
2023/09/18 05:50:58;;;;;;;5.47;1.83;;;;;;;;;;5048740;28;20057;-75
2023/09/18 05:53:25;;;;;;;3.55;1.38;;;;;;;;;;5048617;28;20063;-73
2023/09/18 05:55:51;;;;;;;3.72;1.60;;;;;;;;;;5048562;28;20049;-69
2023/09/18 05:58:22;;;;;;;2.67;1.48;;;;;;;;;;5048740;28;20045;-74
2023/09/18 06:00:49;;;;;;;6.82;1.83;;;;;;;;;;5052374;28;20489;-72
2023/09/18 06:03:18;;;;;;;5.80;2.75;;;;;;;;;;5052638;28;20087;-70
2023/09/18 06:05:46;;;;;;;10.43;3.22;;;;;;;;;;5052060;28;20076;-70
2023/09/18 06:08:13;;;;;;;7.97;2.53;;;;;;;;;;5051994;28;20041;-72
2023/09/18 06:10:42;;;;;;;5.07;2.38;;;;;;;;;;5051813;28;20053;-69
2023/09/18 06:13:08;;;;;;;7.60;2.72;;;;;;;;;;5052455;28;20045;-68
2023/09/18 06:15:35;;;;;;;6.18;2.70;;;;;;;;;;5051816;28;20045;-72
2023/09/18 06:18:03;;;;;;;6.28;2.90;;;;;;;;;;5051921;28;20292;-71
2023/09/18 06:20:30;;;;;;;5.45;2.40;;;;;;;;;;5051917;28;20605;-72
2023/09/18 06:22:57;;;;;;;5.25;2.40;;;;;;;;;;5051703;28;20084;-72
2023/09/18 06:25:24;;;;;;;4.53;2.42;;;;;;;;;;5051869;28;20120;-72
2023/09/18 06:27:51;;;;;;;6.88;2.30;;;;;;;;;;5051644;28;20045;-71
2023/09/18 06:30:17;;;;;;;8.27;2.72;;;;;;;;;;5051708;28;20132;-72
2023/09/18 06:32:44;;;;;;;6.50;2.42;;;;;;;;;;5052013;28;20617;-73
2023/09/18 06:35:11;;;;;;;7.72;2.75;;;;;;;;;;5051495;28;20501;-71
2023/09/18 06:37:38;;;;;;;5.90;2.42;;;;;;;;;;5051917;28;20047;-69
2023/09/18 06:40:05;;;;;;;5.53;2.50;;;;;;;;;;5051677;28;20051;-73
2023/09/18 06:42:32;;;;;;;7.18;3.28;;;;;;;;;;5051313;28;20144;-70
2023/09/18 06:45:01;;;;;;;5.40;2.60;;;;;;;;;;5051378;28;20463;-71
2023/09/18 06:47:28;;;;;;;5.20;2.40;;;;;;;;;;5051180;28;20045;-73
2023/09/18 06:49:55;;;;;;;6.25;2.88;;;;;;;;;;5051189;28;20095;-72
2023/09/18 06:52:21;;;;;;;10.52;2.85;;;;;;;;;;5051156;28;20053;-73
2023/09/18 06:54:48;;;;;;;5.95;2.50;;;;;;;;;;5051468;28;20056;-71
2023/09/18 06:57:14;;;;;;;5.35;2.83;;;;;;;;;;5051174;28;20049;-70
2023/09/18 06:59:41;;;;;;;8.95;3.15;;;;;;;;;;5051335;28;20041;-71
2023/09/18 07:02:08;;;;;;;7.45;3.30;;;;;;;;;;5051174;28;20045;-69
2023/09/18 07:04:35;;;;;;;8.93;3.20;;;;;;;;;;5051097;28;20080;-71
2023/09/18 07:07:02;;;;;;;8.05;3.35;;;;;;;;;;5051023;28;20044;-71
2023/09/18 07:09:29;;;;;;;11.23;3.55;;;;;;;;;;5033094;28;20041;-73
2023/09/18 07:11:55;;;;;;;7.60;3.20;;;;;;;;;;5051162;28;20091;-69
2023/09/18 07:14:22;;;;;;;13.35;3.50;;;;;;;;;;5051107;28;20128;-73
2023/09/18 07:16:49;;;;;;;9.93;3.60;;;;;;;;;;5050964;28;20081;-69
2023/09/18 07:19:16;;;;;;;14.43;4.32;;;;;;;;;;5051079;28;20253;-74
2023/09/18 07:21:46;;;;;;;11.18;4.22;;;;;;;;;;5050822;28;20081;-73
2023/09/18 07:24:20;;;;;;;9.32;3.78;;;;;;;;;;5050324;28;20053;-70
2023/09/18 07:26:48;;;;;;;12.63;4.85;;;;;;;;;;5050297;28;20507;-70
2023/09/18 07:29:16;;;;;;;11.38;4.43;;;;;;;;;;5050252;28;20048;-73
2023/09/18 07:31:43;;;;;;;8.23;3.47;;;;;;;;;;5050764;28;20045;-71
2023/09/18 07:34:10;;;;;;;19.30;5.05;;;;;;;;;;5050746;28;20100;-69
2023/09/18 07:36:40;;;;;;;14.93;4.20;;;;;;;;;;5050375;28;20045;-69
2023/09/18 07:39:06;;;;;;;6.38;3.10;;;;;;;;;;5050365;28;20051;-72
2023/09/18 07:41:33;;;;;;;15.32;5.03;;;;;;;;;;5050152;28;20049;-74
2023/09/18 07:44:00;;;;;;;13.48;4.53;;;;;;;;;;5050624;28;20152;-70
2023/09/18 07:46:27;;;;;;;11.15;3.80;;;;;;;;;;5050224;28;20195;-72
2023/09/18 07:48:53;;;;;;;11.02;4.30;;;;;;;;;;5050100;28;20489;-73
2023/09/18 07:51:21;;;;;;;7.18;3.50;;;;;;;;;;5049877;28;20053;-70
2023/09/18 07:53:48;;;;;;;11.15;4.38;;;;;;;;;;5049950;28;20396;-72
2023/09/18 07:56:14;;;;;;;8.45;4.05;;;;;;;;;;5050012;28;20143;-74
2023/09/18 07:58:41;;;;;;;5.65;3.03;;;;;;;;;;5049992;28;20103;-69
2023/09/18 08:01:10;;;;;;;11.90;4.80;;;;;;;;;;5050196;28;20041;-71
2023/09/18 08:03:36;;;;;;;9.52;4.25;;;;;;;;;;5050159;28;20071;-73
2023/09/18 08:06:04;;;;;;;9.77;3.78;;;;;;;;;;5049696;28;20409;-69
2023/09/18 08:08:33;;;;;;;7.22;3.50;;;;;;;;;;5049523;28;20080;-73
2023/09/18 08:11:08;;;;;;;8.73;3.58;;;;;;;;;;5050235;28;20045;-73
2023/09/18 08:13:36;;;;;;;8.27;3.80;;;;;;;;;;5049653;28;20574;-71
2023/09/18 08:16:06;;;;;;;11.75;4.43;;;;;;;;;;5050155;28;20045;-72
2023/09/18 08:18:33;;;;;;;;;;;;;;;;;;5050166;28;20045;-71
2023/09/18 08:21:00;;;;;;;7.97;3.33;;;;;;;;;;5049354;28;20023;-73
2023/09/18 08:23:27;;;;;;;10.85;4.47;;;;;;;;;;5049449;28;20051;-74
2023/09/18 08:25:57;;;;;;;10.27;4.32;;;;;;;;;;5049650;28;20044;-74
2023/09/18 08:28:24;;;;;;;9.13;3.70;;;;;;;;;;5031762;28;20132;-73
2023/09/18 08:30:50;;;;;;;10.40;4.13;;;;;;;;;;5049841;28;20044;-74
2023/09/18 08:33:17;;;;;;;9.98;3.78;;;;;;;;;;5049662;28;20045;-70
2023/09/18 08:35:44;;;;;;;9.05;3.97;;;;;;;;;;5049760;28;20040;-72
2023/09/18 08:38:11;;;;;;;9.55;4.10;;;;;;;;;;5049036;28;20045;-73
2023/09/18 08:40:41;;;;;;;10.48;4.32;;;;;;;;;;5049443;28;20137;-73
2023/09/18 08:43:09;;;;;;;6.00;3.33;;;;;;;;;;5049045;28;20055;-73
2023/09/18 08:46:04;;;;;;;9.05;3.88;;;;;;;;;;5049808;28;20080;-74
2023/09/18 08:48:37;;;;;;;6.78;3.33;;;;;;;;;;5046735;28;20071;-69
2023/09/18 08:51:05;;;;;;;6.40;3.22;;;;;;;;;;5049235;28;20068;-73
2023/09/18 08:53:34;;;;;;;10.32;3.78;;;;;;;;;;5048960;28;20075;-74
2023/09/18 08:56:03;;;;;;;8.73;3.67;;;;;;;;;;5049233;28;20397;-74
2023/09/18 08:58:35;;;;;;;8.30;4.47;;;;;;;;;;5048947;28;20468;-74
2023/09/18 09:01:03;;;;;;;11.73;4.50;;;;;;;;;;5049306;28;20041;-71
2023/09/18 09:03:30;;;;;;;7.20;3.78;;;;;;;;;;5049170;28;20076;-72
2023/09/18 09:06:00;;;;;;;7.25;4.07;;;;;;;;;;5049292;28;20144;-74
2023/09/18 09:08:28;;;;;;;8.00;4.10;;;;;;;;;;5048679;28;20052;-74
2023/09/18 09:10:57;;;;;;;10.07;3.65;;;;;;;;;;5049443;28;20135;-74
2023/09/18 09:13:27;;;;;;;9.73;3.45;;;;;;;;;;5049106;28;20297;-75
2023/09/18 09:16:10;;;;;;;7.60;3.10;;;;;;;;;;5049129;28;20045;-74
2023/09/18 09:18:48;;;;;;;8.95;3.92;;;;;;;;;;5048663;28;20051;-74
2023/09/18 09:21:15;;;;;;;8.68;3.25;;;;;;;;;;5049498;28;20127;-74
2023/09/18 09:23:53;;;;;;;10.13;3.20;;;;;;;;;;5048960;28;20077;-74
2023/09/18 09:26:22;;;;;;;6.00;2.90;;;;;;;;;;5049101;28;20049;-74
2023/09/18 09:28:50;;;;;;;8.65;3.22;;;;;;;;;;5048670;28;20569;-74
2023/09/18 09:31:30;;;;;;;6.35;3.10;;;;;;;;;;5048897;28;20049;-74
2023/09/18 09:33:58;;;;;;;8.35;3.35;;;;;;;;;;5051853;28;20055;-75
2023/09/18 09:36:25;;;;;;;9.38;2.88;;;;;;;;;;5053143;28;20049;-75
2023/09/18 09:38:58;;;;;;;6.65;2.90;;;;;;;;;;5052243;28;20049;-74
2023/09/18 09:41:27;;;;;;;7.43;3.08;;;;;;;;;;5052918;28;20041;-74
2023/09/18 09:43:56;;;;;;;9.45;3.38;;;;;;;;;;5052495;28;20511;-74
2023/09/18 09:46:25;;;;;;;7.20;2.90;;;;;;;;;;5052656;28;20045;-73
2023/09/18 09:49:03;;;;;;;7.17;3.07;;;;;;;;;;5052387;28;20390;-74
2023/09/18 09:51:31;;;;;;;8.57;2.92;;;;;;;;;;5052722;28;20076;-74
2023/09/18 09:54:00;;;;;;;8.38;3.05;;;;;;;;;;5052235;28;20063;-73
2023/09/18 09:56:47;;;;;;;8.23;2.83;;;;;;;;;;5052741;28;20485;-74
2023/09/18 09:59:15;;;;;;;11.68;2.90;;;;;;;;;;5052244;28;20083;-73
2023/09/18 10:01:44;;;;;;;6.78;2.70;;;;;;;;;;5052487;28;20056;-73
2023/09/18 10:04:18;;;;;;;8.15;3.10;;;;;;;;;;5052109;28;20398;-70
2023/09/18 10:06:56;;;;;;;5.68;2.72;;;;;;;;;;5052435;28;20048;-70
2023/09/18 10:09:26;;;;;;;5.38;2.38;;;;;;;;;;5051555;28;20045;-73
2023/09/18 10:11:55;;;;;;;7.03;2.53;;;;;;;;;;5052530;28;20041;-74
2023/09/18 10:14:29;;;;;;;4.82;2.40;;;;;;;;;;5034411;28;20079;-74
2023/09/18 10:17:06;;;;;;;5.68;2.15;;;;;;;;;;5052453;28;20095;-72
2023/09/18 10:20:19;;;;;;;6.75;2.13;;;;;;;;;;5050388;28;20049;-73
2023/09/18 10:22:52;;;;;;;4.45;2.03;;;;;;;;;;5050419;28;20500;-70
2023/09/18 10:25:31;;;;;;;4.85;2.20;;;;;;;;;;5051766;28;20393;-73
2023/09/18 10:28:01;;;;;;;6.35;2.22;;;;;;;;;;5052076;28;20049;-71
2023/09/18 10:30:29;;;;;;;;;;;;;;;;;;5052252;28;20041;-73
2023/09/18 10:32:59;;;;;;;5.93;1.83;;;;;;;;;;5051963;28;19927;-74
2023/09/18 10:35:26;;;;;;;5.80;2.30;;;;;;;;;;5052266;28;20056;-74
2023/09/18 10:37:54;;;;;;;4.43;2.05;;;;;;;;;;5051421;28;20132;-73
2023/09/18 10:40:22;;;;;;;5.97;2.63;;;;;;;;;;5051668;28;20044;-72
2023/09/18 10:42:51;;;;;;;7.53;2.00;;;;;;;;;;5051414;28;20417;-73
2023/09/18 10:45:19;;;;;;;5.23;2.00;;;;;;;;;;5050654;28;20048;-74
2023/09/18 10:47:47;;;;;;;4.90;1.67;;;;;;;;;;5051593;28;20045;-74
2023/09/18 10:50:25;;;;;;;5.68;1.80;;;;;;;;;;5039349;28;20053;-74
2023/09/18 10:52:53;;;;;;;5.32;1.90;;;;;;;;;;5051662;28;20056;-71
2023/09/18 10:55:21;;;;;;;6.15;1.98;;;;;;;;;;5051607;28;20045;-74
2023/09/18 10:57:57;;;;;;;5.22;1.70;;;;;;;;;;5051351;28;20049;-72
2023/09/18 11:00:30;;;;;;;3.33;2.00;;;;;;;;;;5051406;28;20056;-72
2023/09/18 11:03:29;;;;;;;4.40;1.80;;;;;;;;;;5051338;28;20051;-74
2023/09/18 11:06:12;;;;;;;5.75;1.55;;;;;;;;;;5007755;28;20052;-74
2023/09/18 11:08:47;;;;;;;4.43;1.80;;;;;;;;;;5050681;28;20075;-73
2023/09/18 11:11:19;;;;;;;4.28;1.80;;;;;;;;;;5051284;28;20049;-72
2023/09/18 11:13:56;;;;;;;3.25;1.70;;;;;;;;;;5050962;28;20052;-71
2023/09/18 11:16:25;;;;;;;5.60;1.85;;;;;;;;;;5051193;28;20048;-75
2023/09/18 11:18:53;;;;;;;4.85;1.52;;;;;;;;;;5050585;28;20048;-72
2023/09/18 11:21:25;;;;;;;4.45;1.60;;;;;;;;;;5050953;28;20128;-73
2023/09/18 11:24:15;;;;;;;4.35;1.55;;;;;;;;;;5050551;28;20045;-74
2023/09/18 11:26:44;;;;;;;2.78;1.23;;;;;;;;;;5050945;28;20107;-74
2023/09/18 11:29:13;;;;;;;2.17;1.30;;;;;;;;;;5050779;28;20073;-74
2023/09/18 11:31:44;;;;;;;2.35;1.33;;;;;;;;;;5050660;28;20650;-75
2023/09/18 11:34:36;;;;;;;2.10;1.40;;;;;;;;;;5050624;28;20056;-73
2023/09/18 11:37:19;;;;;;;2.75;1.00;;;;;;;;;;5050669;28;20048;-73
2023/09/18 11:39:46;;;;;;;2.60;1.38;;;;;;;;;;5050172;28;20478;-74
2023/09/18 11:42:16;;;;;;;2.33;1.20;;;;;;;;;;5050851;28;20102;-73
2023/09/18 11:44:46;;;;;;;5.35;1.63;;;;;;;;;;5050905;28;20045;-70
2023/09/18 11:47:22;;;;;;;5.15;1.48;;;;;;;;;;5050708;28;20052;-74
2023/09/18 11:49:52;;;;;;;2.30;1.30;;;;;;;;;;5050026;28;20178;-70
2023/09/18 11:52:25;;;;;;;2.63;1.20;;;;;;;;;;5050272;28;20634;-73
2023/09/18 11:54:55;;;;;;;3.45;1.20;;;;;;;;;;5050182;28;20049;-72
2023/09/18 11:57:21;;;;;;;1.77;1.13;;;;;;;;;;5049324;28;20064;-74
2023/09/18 11:59:50;;;;;;;3.72;1.50;;;;;;;;;;5050377;28;20288;-70
2023/09/18 12:02:34;;;;;;;4.82;1.50;;;;;;;;;;5050019;28;20052;-74
2023/09/18 12:05:11;;;;;;;2.88;1.40;;;;;;;;;;5050123;28;20056;-73
2023/09/18 12:07:39;;;;;;;1.77;1.13;;;;;;;;;;5050271;28;20045;-75
2023/09/18 12:10:07;;;;;;;3.15;1.27;;;;;;;;;;5049697;28;20132;-72
2023/09/18 12:12:35;;;;;;;4.55;1.55;;;;;;;;;;5050209;28;20513;-70
2023/09/18 12:15:03;;;;;;;3.00;1.58;;;;;;;;;;5050063;28;20045;-72
2023/09/18 12:17:30;;;;;;;2.40;1.30;;;;;;;;;;5050002;28;20516;-73
2023/09/18 12:19:57;;;;;;;3.58;1.13;;;;;;;;;;5049992;28;20057;-74
2023/09/18 12:22:27;;;;;;;2.53;1.40;;;;;;;;;;5050369;28;20044;-73
2023/09/18 12:25:15;;;;;;;2.75;1.10;;;;;;;;;;5049485;28;20562;-70
2023/09/18 12:27:43;;;;;;;3.53;1.10;;;;;;;;;;5049733;28;20497;-74
2023/09/18 12:30:12;;;;;;;2.08;1.13;;;;;;;;;;5049563;28;20045;-75
2023/09/18 12:32:39;;;;;;;2.47;1.17;;;;;;;;;;5050007;28;20124;-72
2023/09/18 12:35:07;;;;;;;4.25;1.27;;;;;;;;;;5049422;28;20055;-71
2023/09/18 12:37:40;;;;;;;3.45;1.50;;;;;;;;;;5049883;28;20099;-71
2023/09/18 12:40:27;;;;;;;3.35;1.60;;;;;;;;;;5049503;28;20056;-73
2023/09/18 12:42:57;;;;;;;5.00;1.45;;;;;;;;;;5049725;28;20040;-72
2023/09/18 12:45:25;;;;;;;3.45;1.40;;;;;;;;;;5049157;28;20170;-71
2023/09/18 12:47:55;;;;;;;3.38;1.40;;;;;;;;;;5049227;28;20542;-70
2023/09/18 12:50:22;;;;;;;3.75;1.60;;;;;;;;;;5048892;28;20060;-72
2023/09/18 12:52:49;;;;;;;3.40;1.10;;;;;;;;;;5049448;28;20103;-72
2023/09/18 12:55:26;;;;;;;2.63;1.20;;;;;;;;;;5049602;28;20056;-72
2023/09/18 12:57:54;;;;;;;6.65;1.88;;;;;;;;;;5049438;28;20144;-72
2023/09/18 13:00:22;;;;;;;3.30;1.65;;;;;;;;;;5031507;28;20049;-69
2023/09/18 13:02:55;;;;;;;3.78;1.73;;;;;;;;;;5049205;28;20051;-72
2023/09/18 13:05:26;;;;;;;4.95;1.80;;;;;;;;;;5048787;28;20057;-69
2023/09/18 13:07:54;;;;;;;3.35;1.52;;;;;;;;;;5050870;28;20072;-69
2023/09/18 13:10:22;;;;;;;2.45;1.50;;;;;;;;;;5053426;28;20041;-69
2023/09/18 13:12:55;;;;;;;5.65;1.52;;;;;;;;;;5053381;28;20049;-68
2023/09/18 13:15:29;;;;;;;3.90;1.70;;;;;;;;;;5053312;28;20190;-72
2023/09/18 13:17:59;;;;;;;2.58;1.50;;;;;;;;;;5053629;28;20283;-72
2023/09/18 13:20:28;;;;;;;3.77;1.67;;;;;;;;;;5035170;28;20132;-72
2023/09/18 13:23:00;;;;;;;3.78;1.40;;;;;;;;;;5052837;28;20412;-73
2023/09/18 13:25:43;;;;;;;4.65;2.08;;;;;;;;;;5052956;28;20084;-69
2023/09/18 13:28:12;;;;;;;3.60;1.83;;;;;;;;;;5053046;28;20049;-73
2023/09/18 13:30:41;;;;;;;3.08;1.50;;;;;;;;;;5052740;28;20052;-72
2023/09/18 13:33:10;;;;;;;2.55;1.55;;;;;;;;;;5053442;28;20048;-72
2023/09/18 13:35:39;;;;;;;4.82;1.58;;;;;;;;;;5052582;28;20044;-70
2023/09/18 13:38:16;;;;;;;4.45;1.60;;;;;;;;;;5052896;28;20041;-73
2023/09/18 13:40:46;;;;;;;3.25;1.20;;;;;;;;;;5052449;28;20045;-72
2023/09/18 13:43:18;;;;;;;2.77;1.40;;;;;;;;;;5052845;28;20107;-73
2023/09/18 13:45:45;;;;;;;2.08;1.15;;;;;;;;;;5052542;28;20052;-72
2023/09/18 13:48:12;;;;;;;1.98;1.20;;;;;;;;;;5052836;28;20041;-72
2023/09/18 13:50:39;;;;;;;2.05;1.05;;;;;;;;;;5052462;28;20087;-70
2023/09/18 13:53:06;;;;;;;2.83;1.05;;;;;;;;;;5052267;28;20497;-74
2023/09/18 13:55:34;;;;;;;1.50;0.88;;;;;;;;;;5052713;28;20041;-68
2023/09/18 13:58:04;;;;;;;1.83;1.00;;;;;;;;;;5051263;28;20045;-72
2023/09/18 14:00:31;;;;;;;3.33;0.95;;;;;;;;;;5052382;28;20049;-70
2023/09/18 14:02:59;;;;;;;3.30;1.20;;;;;;;;;;5052386;28;20492;-72
2023/09/18 14:05:28;;;;;;;2.78;1.30;;;;;;;;;;5034334;28;20083;-70
2023/09/18 14:08:00;;;;;;;2.10;1.08;;;;;;;;;;5052284;28;20709;-71
2023/09/18 14:10:27;;;;;;;1.85;1.08;;;;;;;;;;5052222;28;20080;-72
2023/09/18 14:12:54;;;;;;;2.53;1.05;;;;;;;;;;5052213;28;20089;-73
2023/09/18 14:15:21;;;;;;;1.83;1.10;;;;;;;;;;5052056;28;20052;-71
2023/09/18 14:17:49;;;;;;;2.97;1.33;;;;;;;;;;5052033;28;20041;-71
2023/09/18 14:20:18;;;;;;;5.00;1.30;;;;;;;;;;5051404;28;20130;-70
2023/09/18 14:22:49;;;;;;;3.75;1.15;;;;;;;;;;5052097;28;20073;-72
2023/09/18 14:25:17;;;;;;;5.45;1.30;;;;;;;;;;5051966;28;20052;-73
2023/09/18 14:27:43;;;;;;;3.25;1.00;;;;;;;;;;5052100;28;20048;-71
2023/09/18 14:30:13;;;;;;;2.05;1.02;;;;;;;;;;5051767;28;20433;-70
2023/09/18 14:32:40;;;;;;;2.00;0.90;;;;;;;;;;5051546;28;20049;-72
2023/09/18 14:35:09;;;;;;;3.33;0.93;;;;;;;;;;5051943;28;20703;-72
2023/09/18 14:37:37;;;;;;;3.08;1.35;;;;;;;;;;5050168;28;20037;-72
2023/09/18 14:40:05;;;;;;;2.10;0.90;;;;;;;;;;5052048;28;20481;-72
2023/09/18 14:42:32;;;;;;;2.20;1.00;;;;;;;;;;5051649;28;20071;-71
2023/09/18 14:45:01;;;;;;;1.98;1.00;;;;;;;;;;5051405;28;20072;-71
2023/09/18 14:47:28;;;;;;;1.75;0.80;;;;;;;;;;5051560;28;20044;-71
2023/09/18 14:49:55;;;;;;;2.90;0.60;;;;;;;;;;5051271;28;20049;-73
2023/09/18 14:52:25;;;;;;;1.15;0.63;;;;;;;;;;5051005;28;20049;-70
2023/09/18 14:54:52;;;;;;;1.00;0.60;;;;;;;;;;5051354;28;20056;-73